Bear Creek, Wisconsin
Current Conditions -  °F | °C
As of 12:15 PM on Friday 28 Nov 2014 (Local Time) from KCLI Reporting Station
Light Snow Light Snow  
Wind Chill:   Ceiling: 3500
Heat Index: 19°   Visibility: 4mi
Dew Point: 12°   Wind: 9mph
Humidity: 74%   Direction: 140°SE
Pressure: 30.06"   Gusts: NA
Location:  44.53°N, 88.73°W
Report Text: KCLI 281815Z AUTO 14008KT 4SM -SN SCT013 BKN035 OVC060 M07/M11 A3006 RMK AO2
Loading
Personal Weather Stations






























Interactive Weather Map New forecast layout! Learn more

10-Day Weather Forecast

Advertisements
Track Severe Weather on mobile